sensor_id;sensor_type;location;lat;lon;timestamp;P1;durP1;ratioP1;P2;durP2;ratioP2
35891;SDS011;21993;42.672;23.296;2022-07-15T00:02:25;5.83;;;3.77;;
35891;SDS011;21993;42.672;23.296;2022-07-15T00:04:50;10.80;;;3.90;;
35891;SDS011;21993;42.672;23.296;2022-07-15T00:07:16;7.37;;;3.60;;
35891;SDS011;21993;42.672;23.296;2022-07-15T00:09:42;5.40;;;3.63;;
35891;SDS011;21993;42.672;23.296;2022-07-15T00:12:26;5.10;;;3.90;;
35891;SDS011;21993;42.672;23.296;2022-07-15T00:14:51;5.57;;;3.47;;
35891;SDS011;21993;42.672;23.296;2022-07-15T00:17:17;4.73;;;3.10;;
35891;SDS011;21993;42.672;23.296;2022-07-15T00:19:42;4.20;;;2.70;;
35891;SDS011;21993;42.672;23.296;2022-07-15T00:22:08;4.77;;;3.17;;
35891;SDS011;21993;42.672;23.296;2022-07-15T00:24:33;5.40;;;2.80;;
35891;SDS011;21993;42.672;23.296;2022-07-15T00:26:59;5.37;;;3.07;;
35891;SDS011;21993;42.672;23.296;2022-07-15T00:29:26;5.03;;;3.20;;
35891;SDS011;21993;42.672;23.296;2022-07-15T00:31:52;5.30;;;3.30;;
35891;SDS011;21993;42.672;23.296;2022-07-15T00:34:18;5.70;;;2.77;;
35891;SDS011;21993;42.672;23.296;2022-07-15T00:36:43;9.50;;;5.77;;
35891;SDS011;21993;42.672;23.296;2022-07-15T00:39:09;16.43;;;9.33;;
35891;SDS011;21993;42.672;23.296;2022-07-15T00:41:38;14.97;;;10.03;;
35891;SDS011;21993;42.672;23.296;2022-07-15T00:44:04;24.87;;;12.40;;
35891;SDS011;21993;42.672;23.296;2022-07-15T00:46:30;26.80;;;13.33;;
35891;SDS011;21993;42.672;23.296;2022-07-15T00:48:59;26.03;;;13.30;;
35891;SDS011;21993;42.672;23.296;2022-07-15T00:51:26;32.40;;;11.93;;
35891;SDS011;21993;42.672;23.296;2022-07-15T00:53:53;24.23;;;13.27;;
35891;SDS011;21993;42.672;23.296;2022-07-15T00:56:21;26.50;;;12.47;;
35891;SDS011;21993;42.672;23.296;2022-07-15T00:58:51;28.77;;;14.03;;
35891;SDS011;21993;42.672;23.296;2022-07-15T01:01:20;22.13;;;11.90;;
35891;SDS011;21993;42.672;23.296;2022-07-15T01:03:49;21.43;;;11.77;;
35891;SDS011;21993;42.672;23.296;2022-07-15T01:06:15;19.70;;;10.10;;
35891;SDS011;21993;42.672;23.296;2022-07-15T01:08:41;16.07;;;8.93;;
35891;SDS011;21993;42.672;23.296;2022-07-15T01:11:07;18.97;;;10.30;;
35891;SDS011;21993;42.672;23.296;2022-07-15T01:13:32;26.73;;;12.70;;
35891;SDS011;21993;42.672;23.296;2022-07-15T01:15:58;16.33;;;10.17;;
35891;SDS011;21993;42.672;23.296;2022-07-15T01:18:24;16.43;;;9.83;;
35891;SDS011;21993;42.672;23.296;2022-07-15T01:20:49;16.73;;;9.63;;
35891;SDS011;21993;42.672;23.296;2022-07-15T01:23:15;17.00;;;8.27;;
35891;SDS011;21993;42.672;23.296;2022-07-15T01:25:42;12.87;;;6.57;;
35891;SDS011;21993;42.672;23.296;2022-07-15T01:28:08;8.33;;;6.17;;
35891;SDS011;21993;42.672;23.296;2022-07-15T01:30:33;10.83;;;6.20;;
35891;SDS011;21993;42.672;23.296;2022-07-15T01:33:00;13.23;;;6.13;;
35891;SDS011;21993;42.672;23.296;2022-07-15T01:35:26;7.27;;;5.27;;
35891;SDS011;21993;42.672;23.296;2022-07-15T01:37:52;9.47;;;5.10;;
35891;SDS011;21993;42.672;23.296;2022-07-15T01:40:17;9.97;;;6.10;;
35891;SDS011;21993;42.672;23.296;2022-07-15T01:42:43;8.60;;;4.97;;
35891;SDS011;21993;42.672;23.296;2022-07-15T01:45:09;9.77;;;6.10;;
35891;SDS011;21993;42.672;23.296;2022-07-15T01:47:44;8.70;;;5.57;;
35891;SDS011;21993;42.672;23.296;2022-07-15T01:50:14;6.83;;;5.13;;
35891;SDS011;21993;42.672;23.296;2022-07-15T01:52:40;9.10;;;5.00;;
35891;SDS011;21993;42.672;23.296;2022-07-15T01:55:07;15.07;;;6.27;;
35891;SDS011;21993;42.672;23.296;2022-07-15T01:57:34;9.03;;;5.60;;
35891;SDS011;21993;42.672;23.296;2022-07-15T01:59:59;8.80;;;5.60;;
35891;SDS011;21993;42.672;23.296;2022-07-15T02:02:25;11.00;;;5.80;;
35891;SDS011;21993;42.672;23.296;2022-07-15T02:04:51;8.87;;;6.27;;
35891;SDS011;21993;42.672;23.296;2022-07-15T02:07:16;11.47;;;7.10;;
35891;SDS011;21993;42.672;23.296;2022-07-15T02:09:42;11.30;;;6.60;;
35891;SDS011;21993;42.672;23.296;2022-07-15T02:12:07;10.77;;;6.23;;
35891;SDS011;21993;42.672;23.296;2022-07-15T02:14:33;9.80;;;5.87;;
35891;SDS011;21993;42.672;23.296;2022-07-15T02:16:59;11.57;;;6.77;;
35891;SDS011;21993;42.672;23.296;2022-07-15T02:19:25;12.27;;;6.27;;
35891;SDS011;21993;42.672;23.296;2022-07-15T02:21:51;10.07;;;5.37;;
35891;SDS011;21993;42.672;23.296;2022-07-15T02:24:17;9.80;;;5.50;;
35891;SDS011;21993;42.672;23.296;2022-07-15T02:26:44;8.57;;;5.17;;
35891;SDS011;21993;42.672;23.296;2022-07-15T02:29:10;8.13;;;5.37;;
35891;SDS011;21993;42.672;23.296;2022-07-15T02:31:35;5.00;;;4.50;;
35891;SDS011;21993;42.672;23.296;2022-07-15T02:34:01;6.07;;;4.90;;
35891;SDS011;21993;42.672;23.296;2022-07-15T02:36:27;8.77;;;5.37;;
35891;SDS011;21993;42.672;23.296;2022-07-15T02:38:53;9.97;;;5.70;;
35891;SDS011;21993;42.672;23.296;2022-07-15T02:41:19;7.90;;;6.27;;
35891;SDS011;21993;42.672;23.296;2022-07-15T02:43:44;9.13;;;6.23;;
35891;SDS011;21993;42.672;23.296;2022-07-15T02:46:10;10.87;;;5.70;;
35891;SDS011;21993;42.672;23.296;2022-07-15T02:48:39;11.13;;;6.27;;
35891;SDS011;21993;42.672;23.296;2022-07-15T02:51:05;11.13;;;7.37;;
35891;SDS011;21993;42.672;23.296;2022-07-15T02:53:31;13.77;;;7.23;;
35891;SDS011;21993;42.672;23.296;2022-07-15T02:55:57;14.00;;;7.70;;
35891;SDS011;21993;42.672;23.296;2022-07-15T02:58:26;8.90;;;6.57;;
35891;SDS011;21993;42.672;23.296;2022-07-15T03:00:53;10.07;;;6.63;;
35891;SDS011;21993;42.672;23.296;2022-07-15T03:03:19;10.43;;;6.07;;
35891;SDS011;21993;42.672;23.296;2022-07-15T03:05:45;9.40;;;4.73;;
35891;SDS011;21993;42.672;23.296;2022-07-15T03:08:10;7.50;;;4.53;;
35891;SDS011;21993;42.672;23.296;2022-07-15T03:10:36;6.00;;;4.53;;
35891;SDS011;21993;42.672;23.296;2022-07-15T03:13:01;7.70;;;4.67;;
35891;SDS011;21993;42.672;23.296;2022-07-15T03:15:27;7.53;;;4.60;;
35891;SDS011;21993;42.672;23.296;2022-07-15T03:17:53;7.80;;;4.37;;
35891;SDS011;21993;42.672;23.296;2022-07-15T03:20:18;6.80;;;4.80;;
35891;SDS011;21993;42.672;23.296;2022-07-15T03:22:44;5.50;;;4.67;;
35891;SDS011;21993;42.672;23.296;2022-07-15T03:25:09;7.37;;;4.30;;
35891;SDS011;21993;42.672;23.296;2022-07-15T03:27:35;5.43;;;4.80;;
35891;SDS011;21993;42.672;23.296;2022-07-15T03:30:00;5.63;;;4.27;;
35891;SDS011;21993;42.672;23.296;2022-07-15T03:32:26;6.50;;;4.07;;
35891;SDS011;21993;42.672;23.296;2022-07-15T03:34:52;6.67;;;4.37;;
35891;SDS011;21993;42.672;23.296;2022-07-15T03:37:17;10.67;;;4.90;;
35891;SDS011;21993;42.672;23.296;2022-07-15T03:39:43;5.43;;;3.83;;
35891;SDS011;21993;42.672;23.296;2022-07-15T03:42:09;8.00;;;4.27;;
35891;SDS011;21993;42.672;23.296;2022-07-15T03:44:34;5.57;;;4.60;;
35891;SDS011;21993;42.672;23.296;2022-07-15T03:47:00;6.57;;;3.70;;
35891;SDS011;21993;42.672;23.296;2022-07-15T03:49:25;7.57;;;4.20;;
35891;SDS011;21993;42.672;23.296;2022-07-15T03:51:51;6.83;;;4.03;;
35891;SDS011;21993;42.672;23.296;2022-07-15T03:54:16;6.77;;;4.30;;
35891;SDS011;21993;42.672;23.296;2022-07-15T03:56:42;5.87;;;4.07;;
35891;SDS011;21993;42.672;23.296;2022-07-15T03:59:07;5.07;;;3.37;;
35891;SDS011;21993;42.672;23.296;2022-07-15T04:01:33;5.77;;;3.87;;
35891;SDS011;21993;42.672;23.296;2022-07-15T04:03:58;5.03;;;3.47;;
35891;SDS011;21993;42.672;23.296;2022-07-15T04:06:24;6.03;;;3.80;;
35891;SDS011;21993;42.672;23.296;2022-07-15T04:08:50;6.33;;;3.70;;
35891;SDS011;21993;42.672;23.296;2022-07-15T04:11:16;7.43;;;4.33;;
35891;SDS011;21993;42.672;23.296;2022-07-15T04:13:42;4.23;;;3.60;;
35891;SDS011;21993;42.672;23.296;2022-07-15T04:16:08;4.20;;;3.80;;
35891;SDS011;21993;42.672;23.296;2022-07-15T04:18:34;9.60;;;4.03;;
35891;SDS011;21993;42.672;23.296;2022-07-15T04:21:00;7.73;;;3.70;;
35891;SDS011;21993;42.672;23.296;2022-07-15T04:23:26;12.07;;;4.37;;
35891;SDS011;21993;42.672;23.296;2022-07-15T04:25:52;6.87;;;4.03;;
35891;SDS011;21993;42.672;23.296;2022-07-15T04:28:18;5.87;;;3.87;;
35891;SDS011;21993;42.672;23.296;2022-07-15T04:30:44;7.10;;;4.50;;
35891;SDS011;21993;42.672;23.296;2022-07-15T04:33:09;8.20;;;4.17;;
35891;SDS011;21993;42.672;23.296;2022-07-15T04:35:35;8.93;;;4.50;;
35891;SDS011;21993;42.672;23.296;2022-07-15T04:38:00;8.40;;;4.40;;
35891;SDS011;21993;42.672;23.296;2022-07-15T04:40:26;7.47;;;4.33;;
35891;SDS011;21993;42.672;23.296;2022-07-15T04:42:51;8.20;;;4.47;;
35891;SDS011;21993;42.672;23.296;2022-07-15T04:45:17;7.93;;;4.47;;
35891;SDS011;21993;42.672;23.296;2022-07-15T04:47:42;7.50;;;4.80;;
35891;SDS011;21993;42.672;23.296;2022-07-15T04:50:08;6.27;;;5.07;;
35891;SDS011;21993;42.672;23.296;2022-07-15T04:52:52;8.73;;;4.60;;
35891;SDS011;21993;42.672;23.296;2022-07-15T04:55:18;7.20;;;4.07;;
35891;SDS011;21993;42.672;23.296;2022-07-15T04:57:44;5.90;;;4.20;;
35891;SDS011;21993;42.672;23.296;2022-07-15T05:00:09;7.17;;;4.20;;
35891;SDS011;21993;42.672;23.296;2022-07-15T05:02:35;8.33;;;4.10;;
35891;SDS011;21993;42.672;23.296;2022-07-15T05:05:01;6.47;;;3.97;;
35891;SDS011;21993;42.672;23.296;2022-07-15T05:07:26;6.10;;;3.37;;
35891;SDS011;21993;42.672;23.296;2022-07-15T05:09:52;3.70;;;3.20;;
35891;SDS011;21993;42.672;23.296;2022-07-15T05:12:17;15.33;;;11.90;;
35891;SDS011;21993;42.672;23.296;2022-07-15T05:14:43;14.00;;;6.63;;
35891;SDS011;21993;42.672;23.296;2022-07-15T05:17:09;10.47;;;3.83;;
35891;SDS011;21993;42.672;23.296;2022-07-15T05:19:34;9.97;;;4.33;;
35891;SDS011;21993;42.672;23.296;2022-07-15T05:22:00;5.10;;;3.73;;
35891;SDS011;21993;42.672;23.296;2022-07-15T05:24:26;6.30;;;3.90;;
35891;SDS011;21993;42.672;23.296;2022-07-15T05:26:52;5.60;;;3.60;;
35891;SDS011;21993;42.672;23.296;2022-07-15T05:29:17;10.23;;;4.07;;
35891;SDS011;21993;42.672;23.296;2022-07-15T05:31:46;9.13;;;3.93;;
35891;SDS011;21993;42.672;23.296;2022-07-15T05:34:13;7.57;;;3.77;;
35891;SDS011;21993;42.672;23.296;2022-07-15T05:36:38;4.37;;;3.20;;
35891;SDS011;21993;42.672;23.296;2022-07-15T05:39:04;3.33;;;3.00;;
35891;SDS011;21993;42.672;23.296;2022-07-15T05:41:30;5.57;;;3.70;;
35891;SDS011;21993;42.672;23.296;2022-07-15T05:43:57;8.43;;;3.70;;
35891;SDS011;21993;42.672;23.296;2022-07-15T05:46:22;3.60;;;3.17;;
35891;SDS011;21993;42.672;23.296;2022-07-15T05:48:48;5.53;;;3.40;;
35891;SDS011;21993;42.672;23.296;2022-07-15T05:51:13;4.10;;;3.20;;
35891;SDS011;21993;42.672;23.296;2022-07-15T05:53:38;6.63;;;3.87;;
35891;SDS011;21993;42.672;23.296;2022-07-15T05:56:04;4.47;;;3.23;;
35891;SDS011;21993;42.672;23.296;2022-07-15T05:58:30;5.13;;;3.20;;
35891;SDS011;21993;42.672;23.296;2022-07-15T06:00:55;5.93;;;5.00;;
35891;SDS011;21993;42.672;23.296;2022-07-15T06:03:21;6.23;;;3.23;;
35891;SDS011;21993;42.672;23.296;2022-07-15T06:05:46;5.07;;;4.00;;
35891;SDS011;21993;42.672;23.296;2022-07-15T06:08:12;9.10;;;5.67;;
35891;SDS011;21993;42.672;23.296;2022-07-15T06:10:37;5.67;;;4.17;;
35891;SDS011;21993;42.672;23.296;2022-07-15T06:13:03;5.43;;;3.27;;
35891;SDS011;21993;42.672;23.296;2022-07-15T06:15:29;5.63;;;2.93;;
35891;SDS011;21993;42.672;23.296;2022-07-15T06:17:55;7.93;;;3.10;;
35891;SDS011;21993;42.672;23.296;2022-07-15T06:20:21;4.57;;;3.60;;
35891;SDS011;21993;42.672;23.296;2022-07-15T06:22:47;5.60;;;3.37;;
35891;SDS011;21993;42.672;23.296;2022-07-15T06:25:12;10.30;;;6.20;;
35891;SDS011;21993;42.672;23.296;2022-07-15T06:27:38;12.53;;;5.60;;
35891;SDS011;21993;42.672;23.296;2022-07-15T06:30:05;6.60;;;3.63;;
35891;SDS011;21993;42.672;23.296;2022-07-15T06:32:31;6.00;;;3.87;;
35891;SDS011;21993;42.672;23.296;2022-07-15T06:34:56;3.87;;;2.70;;
35891;SDS011;21993;42.672;23.296;2022-07-15T06:37:22;6.40;;;3.17;;
35891;SDS011;21993;42.672;23.296;2022-07-15T06:39:48;3.53;;;3.00;;
35891;SDS011;21993;42.672;23.296;2022-07-15T06:42:13;4.17;;;3.60;;
35891;SDS011;21993;42.672;23.296;2022-07-15T06:44:39;6.43;;;3.57;;
35891;SDS011;21993;42.672;23.296;2022-07-15T06:47:04;5.07;;;3.60;;
35891;SDS011;21993;42.672;23.296;2022-07-15T06:49:31;6.17;;;3.30;;
35891;SDS011;21993;42.672;23.296;2022-07-15T06:51:57;7.90;;;3.73;;
35891;SDS011;21993;42.672;23.296;2022-07-15T06:54:24;7.13;;;4.30;;
35891;SDS011;21993;42.672;23.296;2022-07-15T06:56:50;6.03;;;3.70;;
35891;SDS011;21993;42.672;23.296;2022-07-15T06:59:15;5.53;;;3.60;;
35891;SDS011;21993;42.672;23.296;2022-07-15T07:01:41;6.60;;;3.53;;
35891;SDS011;21993;42.672;23.296;2022-07-15T07:04:06;4.60;;;3.00;;
35891;SDS011;21993;42.672;23.296;2022-07-15T07:06:32;7.03;;;3.30;;
35891;SDS011;21993;42.672;23.296;2022-07-15T07:08:58;4.03;;;3.10;;
35891;SDS011;21993;42.672;23.296;2022-07-15T07:11:23;5.00;;;2.90;;
35891;SDS011;21993;42.672;23.296;2022-07-15T07:13:49;7.63;;;3.40;;
35891;SDS011;21993;42.672;23.296;2022-07-15T07:16:15;3.07;;;2.80;;
35891;SDS011;21993;42.672;23.296;2022-07-15T07:18:41;4.17;;;3.00;;
35891;SDS011;21993;42.672;23.296;2022-07-15T07:21:07;9.87;;;3.30;;
35891;SDS011;21993;42.672;23.296;2022-07-15T07:23:33;7.67;;;3.67;;
35891;SDS011;21993;42.672;23.296;2022-07-15T07:25:59;6.80;;;3.57;;
35891;SDS011;21993;42.672;23.296;2022-07-15T07:28:25;4.33;;;2.93;;
35891;SDS011;21993;42.672;23.296;2022-07-15T07:30:50;8.07;;;3.20;;
35891;SDS011;21993;42.672;23.296;2022-07-15T07:33:18;11.33;;;4.73;;
35891;SDS011;21993;42.672;23.296;2022-07-15T07:35:44;5.67;;;2.93;;
35891;SDS011;21993;42.672;23.296;2022-07-15T07:38:10;6.60;;;3.47;;
35891;SDS011;21993;42.672;23.296;2022-07-15T07:40:36;7.27;;;3.67;;
35891;SDS011;21993;42.672;23.296;2022-07-15T07:43:01;10.37;;;5.30;;
35891;SDS011;21993;42.672;23.296;2022-07-15T07:45:27;4.50;;;3.50;;
35891;SDS011;21993;42.672;23.296;2022-07-15T07:47:53;6.83;;;3.80;;
35891;SDS011;21993;42.672;23.296;2022-07-15T07:50:20;5.87;;;3.80;;
35891;SDS011;21993;42.672;23.296;2022-07-15T07:52:46;4.57;;;3.50;;
35891;SDS011;21993;42.672;23.296;2022-07-15T07:55:12;6.10;;;3.60;;
35891;SDS011;21993;42.672;23.296;2022-07-15T07:57:47;9.07;;;3.53;;
35891;SDS011;21993;42.672;23.296;2022-07-15T08:00:14;5.43;;;3.30;;
35891;SDS011;21993;42.672;23.296;2022-07-15T08:02:41;6.17;;;3.33;;
35891;SDS011;21993;42.672;23.296;2022-07-15T08:05:07;5.17;;;3.10;;
35891;SDS011;21993;42.672;23.296;2022-07-15T08:07:33;10.27;;;3.50;;
35891;SDS011;21993;42.672;23.296;2022-07-15T08:10:00;5.77;;;3.13;;
35891;SDS011;21993;42.672;23.296;2022-07-15T08:12:26;5.83;;;2.83;;
35891;SDS011;21993;42.672;23.296;2022-07-15T08:14:51;4.03;;;3.50;;
35891;SDS011;21993;42.672;23.296;2022-07-15T08:17:19;5.00;;;3.73;;
35891;SDS011;21993;42.672;23.296;2022-07-15T08:19:45;6.80;;;2.90;;
35891;SDS011;21993;42.672;23.296;2022-07-15T08:22:11;7.37;;;3.60;;
35891;SDS011;21993;42.672;23.296;2022-07-15T08:24:36;7.70;;;2.83;;
35891;SDS011;21993;42.672;23.296;2022-07-15T08:27:02;6.33;;;3.00;;
35891;SDS011;21993;42.672;23.296;2022-07-15T08:29:27;7.03;;;3.60;;
35891;SDS011;21993;42.672;23.296;2022-07-15T08:31:56;5.43;;;3.57;;
35891;SDS011;21993;42.672;23.296;2022-07-15T08:34:21;5.77;;;3.10;;
35891;SDS011;21993;42.672;23.296;2022-07-15T08:36:47;7.37;;;3.50;;
35891;SDS011;21993;42.672;23.296;2022-07-15T08:39:14;5.97;;;3.70;;
35891;SDS011;21993;42.672;23.296;2022-07-15T08:41:40;4.13;;;3.27;;
35891;SDS011;21993;42.672;23.296;2022-07-15T08:44:06;5.10;;;3.40;;
35891;SDS011;21993;42.672;23.296;2022-07-15T08:46:33;8.23;;;4.23;;
35891;SDS011;21993;42.672;23.296;2022-07-15T08:49:07;6.47;;;2.90;;
35891;SDS011;21993;42.672;23.296;2022-07-15T08:51:37;5.03;;;3.20;;
35891;SDS011;21993;42.672;23.296;2022-07-15T08:54:08;5.60;;;3.13;;
35891;SDS011;21993;42.672;23.296;2022-07-15T08:56:34;6.37;;;3.57;;
35891;SDS011;21993;42.672;23.296;2022-07-15T08:59:01;9.93;;;3.73;;
35891;SDS011;21993;42.672;23.296;2022-07-15T09:01:29;7.67;;;3.53;;
35891;SDS011;21993;42.672;23.296;2022-07-15T09:03:55;7.87;;;3.53;;
35891;SDS011;21993;42.672;23.296;2022-07-15T09:06:37;3.50;;;3.20;;
35891;SDS011;21993;42.672;23.296;2022-07-15T09:12:08;4.87;;;3.27;;
35891;SDS011;21993;42.672;23.296;2022-07-15T09:14:37;4.93;;;3.57;;
35891;SDS011;21993;42.672;23.296;2022-07-15T09:17:05;5.83;;;2.97;;
35891;SDS011;21993;42.672;23.296;2022-07-15T09:19:54;5.23;;;3.20;;
35891;SDS011;21993;42.672;23.296;2022-07-15T09:22:47;7.10;;;3.50;;
35891;SDS011;21993;42.672;23.296;2022-07-15T09:25:18;9.53;;;2.90;;
35891;SDS011;21993;42.672;23.296;2022-07-15T09:27:44;4.50;;;3.27;;
35891;SDS011;21993;42.672;23.296;2022-07-15T09:33:09;10.00;;;4.23;;
35891;SDS011;21993;42.672;23.296;2022-07-15T09:36:10;3.67;;;3.17;;
35891;SDS011;21993;42.672;23.296;2022-07-15T09:38:40;4.27;;;3.20;;
35891;SDS011;21993;42.672;23.296;2022-07-15T09:41:10;4.23;;;2.87;;
35891;SDS011;21993;42.672;23.296;2022-07-15T09:43:53;2.77;;;2.53;;
35891;SDS011;21993;42.672;23.296;2022-07-15T09:49:31;3.00;;;2.70;;
35891;SDS011;21993;42.672;23.296;2022-07-15T09:54:24;4.80;;;2.80;;
35891;SDS011;21993;42.672;23.296;2022-07-15T09:56:55;5.07;;;2.37;;
35891;SDS011;21993;42.672;23.296;2022-07-15T09:59:23;2.97;;;2.50;;
35891;SDS011;21993;42.672;23.296;2022-07-15T10:01:50;4.63;;;2.67;;
35891;SDS011;21993;42.672;23.296;2022-07-15T10:04:16;3.00;;;2.70;;
35891;SDS011;21993;42.672;23.296;2022-07-15T10:06:43;3.17;;;2.63;;
35891;SDS011;21993;42.672;23.296;2022-07-15T10:09:09;4.50;;;3.03;;
35891;SDS011;21993;42.672;23.296;2022-07-15T10:11:41;3.97;;;2.70;;
35891;SDS011;21993;42.672;23.296;2022-07-15T10:17:36;5.37;;;2.80;;
35891;SDS011;21993;42.672;23.296;2022-07-15T10:30:26;5.27;;;2.53;;
35891;SDS011;21993;42.672;23.296;2022-07-15T10:33:08;4.17;;;2.90;;
35891;SDS011;21993;42.672;23.296;2022-07-15T10:35:48;3.13;;;2.43;;
35891;SDS011;21993;42.672;23.296;2022-07-15T10:38:29;3.30;;;2.60;;
35891;SDS011;21993;42.672;23.296;2022-07-15T10:46:27;5.17;;;3.00;;
35891;SDS011;21993;42.672;23.296;2022-07-15T10:54:02;4.27;;;2.90;;
35891;SDS011;21993;42.672;23.296;2022-07-15T10:56:29;3.93;;;2.90;;
35891;SDS011;21993;42.672;23.296;2022-07-15T11:01:33;4.70;;;2.27;;
35891;SDS011;21993;42.672;23.296;2022-07-15T11:12:11;3.70;;;2.27;;
35891;SDS011;21993;42.672;23.296;2022-07-15T11:14:43;2.87;;;2.10;;
35891;SDS011;21993;42.672;23.296;2022-07-15T11:17:09;3.57;;;2.30;;
35891;SDS011;21993;42.672;23.296;2022-07-15T11:19:36;3.33;;;2.10;;
35891;SDS011;21993;42.672;23.296;2022-07-15T11:22:02;3.13;;;2.20;;
35891;SDS011;21993;42.672;23.296;2022-07-15T11:24:28;7.80;;;2.30;;
35891;SDS011;21993;42.672;23.296;2022-07-15T11:26:53;2.30;;;2.10;;
35891;SDS011;21993;42.672;23.296;2022-07-15T11:29:19;3.00;;;2.63;;
35891;SDS011;21993;42.672;23.296;2022-07-15T11:31:45;3.53;;;2.33;;
35891;SDS011;21993;42.672;23.296;2022-07-15T11:34:10;2.50;;;2.30;;
35891;SDS011;21993;42.672;23.296;2022-07-15T11:36:36;3.13;;;2.60;;
35891;SDS011;21993;42.672;23.296;2022-07-15T11:39:01;4.97;;;2.53;;
35891;SDS011;21993;42.672;23.296;2022-07-15T11:41:27;5.70;;;3.10;;
35891;SDS011;21993;42.672;23.296;2022-07-15T11:44:11;2.67;;;2.47;;
35891;SDS011;21993;42.672;23.296;2022-07-15T11:46:56;4.30;;;2.50;;
35891;SDS011;21993;42.672;23.296;2022-07-15T11:49:32;2.73;;;2.47;;
35891;SDS011;21993;42.672;23.296;2022-07-15T11:51:59;3.93;;;2.50;;
35891;SDS011;21993;42.672;23.296;2022-07-15T11:54:26;5.60;;;2.73;;
35891;SDS011;21993;42.672;23.296;2022-07-15T11:56:59;5.23;;;3.20;;
35891;SDS011;21993;42.672;23.296;2022-07-15T11:59:25;2.30;;;2.10;;
35891;SDS011;21993;42.672;23.296;2022-07-15T12:02:01;3.00;;;2.70;;
35891;SDS011;21993;42.672;23.296;2022-07-15T12:04:30;3.57;;;3.00;;
35891;SDS011;21993;42.672;23.296;2022-07-15T12:06:56;3.47;;;2.60;;
35891;SDS011;21993;42.672;23.296;2022-07-15T12:09:22;3.83;;;3.07;;
35891;SDS011;21993;42.672;23.296;2022-07-15T12:11:48;3.63;;;3.13;;
35891;SDS011;21993;42.672;23.296;2022-07-15T12:14:18;3.53;;;2.90;;
35891;SDS011;21993;42.672;23.296;2022-07-15T12:16:46;4.33;;;2.93;;
35891;SDS011;21993;42.672;23.296;2022-07-15T12:21:43;3.10;;;2.90;;
35891;SDS011;21993;42.672;23.296;2022-07-15T12:26:41;3.10;;;2.70;;
35891;SDS011;21993;42.672;23.296;2022-07-15T12:29:29;3.10;;;2.80;;
35891;SDS011;21993;42.672;23.296;2022-07-15T12:37:16;3.07;;;2.73;;
35891;SDS011;21993;42.672;23.296;2022-07-15T12:42:20;6.37;;;2.93;;
35891;SDS011;21993;42.672;23.296;2022-07-15T12:44:47;4.33;;;2.80;;
35891;SDS011;21993;42.672;23.296;2022-07-15T12:48:00;2.80;;;2.57;;
35891;SDS011;21993;42.672;23.296;2022-07-15T12:50:31;3.07;;;2.67;;
35891;SDS011;21993;42.672;23.296;2022-07-15T12:52:59;3.97;;;3.10;;
35891;SDS011;21993;42.672;23.296;2022-07-15T12:55:28;4.57;;;3.00;;
35891;SDS011;21993;42.672;23.296;2022-07-15T12:58:05;2.90;;;2.70;;
35891;SDS011;21993;42.672;23.296;2022-07-15T13:00:40;5.83;;;3.10;;
35891;SDS011;21993;42.672;23.296;2022-07-15T13:08:11;3.00;;;2.80;;
35891;SDS011;21993;42.672;23.296;2022-07-15T13:10:41;4.60;;;3.10;;
35891;SDS011;21993;42.672;23.296;2022-07-15T13:13:08;3.00;;;2.70;;
35891;SDS011;21993;42.672;23.296;2022-07-15T13:15:35;4.43;;;3.00;;
35891;SDS011;21993;42.672;23.296;2022-07-15T13:18:01;7.30;;;3.40;;
35891;SDS011;21993;42.672;23.296;2022-07-15T13:20:27;5.37;;;3.07;;
35891;SDS011;21993;42.672;23.296;2022-07-15T13:22:53;3.00;;;2.80;;
35891;SDS011;21993;42.672;23.296;2022-07-15T13:25:19;4.43;;;2.90;;
35891;SDS011;21993;42.672;23.296;2022-07-15T13:27:45;10.30;;;3.17;;
35891;SDS011;21993;42.672;23.296;2022-07-15T13:30:11;3.60;;;3.00;;
35891;SDS011;21993;42.672;23.296;2022-07-15T13:32:37;5.43;;;2.90;;
35891;SDS011;21993;42.672;23.296;2022-07-15T13:35:04;6.10;;;3.30;;
35891;SDS011;21993;42.672;23.296;2022-07-15T13:37:31;4.60;;;3.07;;
35891;SDS011;21993;42.672;23.296;2022-07-15T13:39:57;3.47;;;2.80;;
35891;SDS011;21993;42.672;23.296;2022-07-15T13:42:22;4.73;;;3.13;;
35891;SDS011;21993;42.672;23.296;2022-07-15T13:44:50;4.17;;;3.00;;
35891;SDS011;21993;42.672;23.296;2022-07-15T13:47:16;4.80;;;2.77;;
35891;SDS011;21993;42.672;23.296;2022-07-15T13:49:41;4.07;;;3.00;;
35891;SDS011;21993;42.672;23.296;2022-07-15T13:52:25;4.80;;;3.10;;
35891;SDS011;21993;42.672;23.296;2022-07-15T13:54:51;3.13;;;2.83;;
35891;SDS011;21993;42.672;23.296;2022-07-15T13:57:16;3.90;;;3.07;;
35891;SDS011;21993;42.672;23.296;2022-07-15T13:59:41;3.57;;;3.20;;
35891;SDS011;21993;42.672;23.296;2022-07-15T14:02:07;4.80;;;3.43;;
35891;SDS011;21993;42.672;23.296;2022-07-15T14:04:33;3.30;;;3.00;;
35891;SDS011;21993;42.672;23.296;2022-07-15T14:06:59;4.23;;;3.40;;
35891;SDS011;21993;42.672;23.296;2022-07-15T14:09:24;3.67;;;3.30;;
35891;SDS011;21993;42.672;23.296;2022-07-15T14:11:50;4.03;;;3.53;;
35891;SDS011;21993;42.672;23.296;2022-07-15T14:14:16;5.80;;;3.13;;
35891;SDS011;21993;42.672;23.296;2022-07-15T14:16:41;5.00;;;2.83;;
35891;SDS011;21993;42.672;23.296;2022-07-15T14:19:07;3.43;;;3.17;;
35891;SDS011;21993;42.672;23.296;2022-07-15T14:21:32;4.33;;;2.90;;
35891;SDS011;21993;42.672;23.296;2022-07-15T14:23:58;3.83;;;3.00;;
35891;SDS011;21993;42.672;23.296;2022-07-15T14:26:24;7.00;;;3.13;;
35891;SDS011;21993;42.672;23.296;2022-07-15T14:28:49;4.17;;;3.60;;
35891;SDS011;21993;42.672;23.296;2022-07-15T14:31:15;4.47;;;3.47;;
35891;SDS011;21993;42.672;23.296;2022-07-15T14:33:41;4.13;;;3.60;;
35891;SDS011;21993;42.672;23.296;2022-07-15T14:36:08;3.43;;;3.13;;
35891;SDS011;21993;42.672;23.296;2022-07-15T14:38:34;3.80;;;3.10;;
35891;SDS011;21993;42.672;23.296;2022-07-15T14:41:01;3.20;;;3.00;;
35891;SDS011;21993;42.672;23.296;2022-07-15T14:43:27;8.73;;;3.33;;
35891;SDS011;21993;42.672;23.296;2022-07-15T14:45:52;5.80;;;3.63;;
35891;SDS011;21993;42.672;23.296;2022-07-15T14:48:18;5.67;;;3.30;;
35891;SDS011;21993;42.672;23.296;2022-07-15T14:50:43;4.23;;;3.10;;
35891;SDS011;21993;42.672;23.296;2022-07-15T14:53:09;8.37;;;3.87;;
35891;SDS011;21993;42.672;23.296;2022-07-15T14:55:35;5.27;;;3.37;;
35891;SDS011;21993;42.672;23.296;2022-07-15T14:58:00;6.90;;;3.40;;
35891;SDS011;21993;42.672;23.296;2022-07-15T15:00:26;4.47;;;3.43;;
35891;SDS011;21993;42.672;23.296;2022-07-15T15:02:51;4.87;;;3.40;;
35891;SDS011;21993;42.672;23.296;2022-07-15T15:05:17;4.10;;;3.33;;
35891;SDS011;21993;42.672;23.296;2022-07-15T15:07:42;5.07;;;3.63;;
35891;SDS011;21993;42.672;23.296;2022-07-15T15:10:08;3.63;;;3.40;;
35891;SDS011;21993;42.672;23.296;2022-07-15T15:12:34;3.73;;;3.43;;
35891;SDS011;21993;42.672;23.296;2022-07-15T15:14:59;3.27;;;2.97;;
35891;SDS011;21993;42.672;23.296;2022-07-15T15:17:25;6.70;;;3.63;;
35891;SDS011;21993;42.672;23.296;2022-07-15T15:19:50;3.73;;;3.37;;
35891;SDS011;21993;42.672;23.296;2022-07-15T15:22:15;6.97;;;3.30;;
35891;SDS011;21993;42.672;23.296;2022-07-15T15:24:41;7.07;;;3.93;;
35891;SDS011;21993;42.672;23.296;2022-07-15T15:27:07;3.50;;;2.80;;
35891;SDS011;21993;42.672;23.296;2022-07-15T15:29:35;5.67;;;3.90;;
35891;SDS011;21993;42.672;23.296;2022-07-15T15:32:01;3.87;;;3.50;;
35891;SDS011;21993;42.672;23.296;2022-07-15T15:34:27;6.13;;;3.50;;
35891;SDS011;21993;42.672;23.296;2022-07-15T15:36:54;4.83;;;4.27;;